Time;durP1;ratioP1;P1;durP2;ratioP2;P2;SDS_P1;SDS_P2;PMS_P1;PMS_P2;Temp;Humidity;BMP_temperature;BMP_pressure;BME280_temperature;BME280_humidity;BME280_pressure;Samples;Min_cycle;Max_cycle;Signal;HPM_P1;HPM_P2
2022/06/09 00:00:05;;;;;;;30.98;8.70;;;14.00;99.90;;;;;;5069566;28;20071;-47
2022/06/09 00:02:32;;;;;;;24.77;7.70;;;14.10;99.90;;;;;;5070609;28;20064;-48
2022/06/09 00:04:58;;;;;;;28.55;7.85;;;14.10;99.90;;;;;;5068196;28;20045;-48
2022/06/09 00:07:25;;;;;;;31.23;8.25;;;13.60;99.90;;;;;;5071063;28;20399;-48
2022/06/09 00:10:06;;;;;;;22.85;7.45;;;13.80;99.90;;;;;;5069596;28;20037;-49
2022/06/09 00:12:33;;;;;;;23.42;7.85;;;13.80;99.90;;;;;;5052297;28;20041;-47
2022/06/09 00:14:59;;;;;;;27.05;7.97;;;13.60;99.90;;;;;;5069914;28;20040;-49
2022/06/09 00:17:25;;;;;;;26.10;7.70;;;13.90;99.90;;;;;;5052801;28;20047;-47
2022/06/09 00:19:51;;;;;;;27.98;7.80;;;13.80;99.90;;;;;;5070204;28;20048;-48
2022/06/09 00:22:18;;;;;;;18.52;7.13;;;13.40;99.90;;;;;;5069392;28;20122;-46
2022/06/09 00:24:44;;;;;;;20.08;8.02;;;13.70;99.90;;;;;;5067972;28;20041;-47
2022/06/09 00:27:10;;;;;;;19.58;7.55;;;13.20;99.90;;;;;;5072072;28;20136;-49
2022/06/09 00:29:36;;;;;;;28.20;7.43;;;13.40;99.90;;;;;;5071735;28;20068;-48
2022/06/09 00:32:02;;;;;;;26.50;7.85;;;13.50;99.90;;;;;;5054775;28;20048;-45
2022/06/09 00:34:28;;;;;;;24.58;7.28;;;13.10;99.90;;;;;;5072545;28;20468;-45
2022/06/09 00:36:53;;;;;;;24.42;7.82;;;13.60;99.90;;;;;;5072607;28;20043;-48
2022/06/09 00:39:19;;;;;;;24.15;7.07;;;13.60;99.90;;;;;;5054376;28;20091;-46
2022/06/09 00:41:45;;;;;;;28.25;6.55;;;13.50;99.90;;;;;;5071639;28;20392;-49
2022/06/09 00:44:25;;;;;;;31.45;7.28;;;13.40;99.90;;;;;;5072126;28;20093;-46
2022/06/09 00:47:28;;;;;;;26.98;7.07;;;13.10;99.90;;;;;;5071882;28;20035;-46
2022/06/09 00:49:59;;;;;;;27.50;7.70;;;12.90;99.90;;;;;;4970875;28;20118;-48
2022/06/09 00:52:28;;;;;;;27.35;7.00;;;13.20;99.90;;;;;;5056205;28;20106;-48
2022/06/09 00:55:01;;;;;;;33.17;7.80;;;13.30;99.90;;;;;;5071177;28;20048;-47
2022/06/09 00:57:36;;;;;;;29.70;7.00;;;13.30;99.90;;;;;;5072020;28;20076;-47
2022/06/09 01:00:10;;;;;;;30.17;6.35;;;13.20;99.90;;;;;;5071133;28;20050;-47
2022/06/09 01:02:37;;;;;;;22.70;6.75;;;12.80;99.90;;;;;;5072295;28;20497;-46
2022/06/09 01:05:06;;;;;;;25.30;6.53;;;12.70;99.90;;;;;;5071073;28;20072;-51
2022/06/09 01:07:42;;;;;;;24.13;7.25;;;13.00;99.90;;;;;;5071676;28;20094;-48
2022/06/09 01:10:09;;;;;;;25.05;6.25;;;13.10;99.90;;;;;;5071966;28;20044;-49
2022/06/09 01:12:38;;;;;;;26.55;7.20;;;13.10;99.90;;;;;;5071880;28;20051;-47
2022/06/09 01:15:11;;;;;;;26.08;6.13;;;12.90;99.90;;;;;;5053269;28;20094;-48
2022/06/09 01:18:03;;;;;;;23.20;6.57;;;12.60;99.90;;;;;;5053620;28;20050;-47
2022/06/09 01:20:50;;;;;;;22.02;7.03;;;12.70;99.90;;;;;;5071183;28;20522;-46
2022/06/09 01:23:28;;;;;;;28.77;6.90;;;12.80;99.90;;;;;;5053390;28;20063;-49
2022/06/09 01:26:30;;;;;;;19.30;6.60;;;12.90;99.90;;;;;;5071341;28;20063;-49
2022/06/09 01:29:05;;;;;;;23.45;6.68;;;12.70;99.90;;;;;;5070899;28;20033;-49
2022/06/09 01:31:47;;;;;;;35.83;8.30;;;12.50;99.90;;;;;;5071332;28;20032;-50
2022/06/09 01:34:19;;;;;;;25.88;7.32;;;12.90;99.90;;;;;;5071247;28;20036;-48
2022/06/09 01:37:15;;;;;;;30.50;7.50;;;12.70;99.90;;;;;;5071058;28;20041;-46
2022/06/09 01:39:50;;;;;;;25.38;7.75;;;12.50;99.90;;;;;;5070149;28;20052;-46
2022/06/09 01:42:22;;;;;;;20.95;7.32;;;12.40;99.90;;;;;;5070794;28;20044;-47
2022/06/09 01:44:50;;;;;;;26.33;7.45;;;12.50;99.90;;;;;;5071048;28;20360;-48
2022/06/09 01:47:20;;;;;;;25.45;7.90;;;12.70;99.90;;;;;;5071054;28;20487;-49
2022/06/09 01:49:51;;;;;;;26.58;8.57;;;12.90;99.90;;;;;;5070049;28;20040;-46
2022/06/09 01:52:18;;;;;;;28.15;8.60;;;12.50;99.90;;;;;;5070877;28;20426;-46
2022/06/09 01:54:45;;;;;;;30.58;9.35;;;12.80;99.90;;;;;;5070229;28;20040;-47
2022/06/09 01:57:20;;;;;;;26.33;9.23;;;12.80;99.90;;;;;;5070631;28;20067;-46
2022/06/09 01:59:53;;;;;;;26.20;9.35;;;12.80;99.90;;;;;;5052025;28;20044;-46
2022/06/09 02:02:24;;;;;;;37.60;11.70;;;12.80;99.90;;;;;;5070713;28;20098;-45
2022/06/09 02:05:13;;;;;;;43.38;11.82;;;12.50;99.90;;;;;;5070834;28;20076;-46
2022/06/09 02:07:41;;;;;;;28.35;11.43;;;12.40;99.90;;;;;;5052707;28;20063;-48
2022/06/09 02:10:27;;;;;;;41.88;12.00;;;12.50;99.90;;;;;;5070711;28;20036;-48
2022/06/09 02:12:54;;;;;;;37.97;12.98;;;12.90;99.90;;;;;;5052594;28;20060;-48
2022/06/09 02:15:26;;;;;;;32.92;12.18;;;12.90;99.90;;;;;;5070658;28;20063;-49
2022/06/09 02:17:52;;;;;;;47.47;14.43;;;12.60;99.90;;;;;;5070242;28;20048;-48
2022/06/09 02:20:22;;;;;;;41.97;13.23;;;13.00;99.90;;;;;;5052389;28;20151;-47
2022/06/09 02:22:48;;;;;;;36.35;12.68;;;13.00;99.90;;;;;;5070590;28;20080;-48
2022/06/09 02:25:13;;;;;;;33.72;13.27;;;13.00;99.90;;;;;;5052592;28;20501;-47
2022/06/09 02:27:39;;;;;;;43.92;13.50;;;12.60;99.90;;;;;;5070660;28;20035;-46
2022/06/09 02:30:06;;;;;;;34.78;12.10;;;13.10;99.90;;;;;;5070226;28;20491;-48
2022/06/09 02:32:32;;;;;;;28.15;12.00;;;13.00;99.90;;;;;;5050963;28;20126;-48
2022/06/09 02:34:58;;;;;;;36.92;12.00;;;12.90;99.90;;;;;;5070394;28;20059;-48
2022/06/09 02:37:24;;;;;;;35.80;12.30;;;13.10;99.90;;;;;;5070716;28;20044;-46
2022/06/09 02:39:50;;;;;;;36.45;11.80;;;13.20;99.90;;;;;;5052495;28;20109;-50
2022/06/09 02:42:15;;;;;;;31.48;12.15;;;13.10;99.90;;;;;;5052550;28;20060;-46
2022/06/09 02:44:41;;;;;;;25.70;10.75;;;13.00;99.90;;;;;;5051924;28;20629;-48
2022/06/09 02:47:07;;;;;;;35.40;12.07;;;12.60;99.90;;;;;;5052213;28;20036;-47
2022/06/09 02:49:33;;;;;;;38.03;12.20;;;12.60;99.90;;;;;;5052399;28;20041;-48
2022/06/09 02:51:58;;;;;;;34.72;11.85;;;12.60;99.90;;;;;;5070379;28;20041;-47
2022/06/09 02:54:24;;;;;;;38.72;12.10;;;12.60;99.90;;;;;;5070221;28;20058;-47
2022/06/09 02:56:50;;;;;;;30.90;11.32;;;13.00;99.90;;;;;;5070400;28;20041;-46
2022/06/09 02:59:15;;;;;;;44.15;12.88;;;13.00;99.90;;;;;;5070019;28;20136;-46
2022/06/09 03:01:41;;;;;;;36.35;11.82;;;12.60;99.90;;;;;;5070413;28;20411;-47
2022/06/09 03:04:08;;;;;;;31.08;11.90;;;12.90;99.90;;;;;;5070097;28;20078;-47
2022/06/09 03:06:34;;;;;;;36.03;12.30;;;12.70;99.90;;;;;;5074044;28;20040;-48
2022/06/09 03:09:00;;;;;;;41.22;13.00;;;12.90;99.90;;;;;;5074064;28;20029;-48
2022/06/09 03:11:26;;;;;;;32.65;12.32;;;12.50;99.90;;;;;;5072547;28;20032;-48
2022/06/09 03:13:52;;;;;;;32.30;11.77;;;12.40;99.90;;;;;;5073830;28;20495;-46
2022/06/09 03:16:18;;;;;;;30.50;11.57;;;12.30;99.90;;;;;;5073947;28;20044;-49
2022/06/09 03:18:45;;;;;;;35.35;11.65;;;12.70;99.90;;;;;;5073517;28;20071;-48
2022/06/09 03:21:14;;;;;;;36.38;12.38;;;12.80;99.90;;;;;;5073271;28;20048;-46
2022/06/09 03:23:40;;;;;;;34.28;12.85;;;12.40;99.90;;;;;;5073676;28;20411;-47
2022/06/09 03:26:07;;;;;;;29.42;12.50;;;12.40;99.90;;;;;;5073320;28;20047;-48
2022/06/09 03:28:33;;;;;;;37.50;12.77;;;12.50;99.90;;;;;;5072923;28;20115;-47
2022/06/09 03:30:59;;;;;;;38.78;12.30;;;12.30;99.90;;;;;;5073623;28;20056;-49
2022/06/09 03:33:25;;;;;;;34.00;13.10;;;12.80;99.90;;;;;;5073455;28;20047;-46
2022/06/09 03:35:51;;;;;;;35.95;12.55;;;12.80;99.90;;;;;;5073361;28;20044;-48
2022/06/09 03:38:17;;;;;;;32.55;12.43;;;12.30;99.90;;;;;;5055265;28;20041;-48
2022/06/09 03:40:43;;;;;;;38.45;13.57;;;12.40;99.90;;;;;;5073303;28;20036;-47
2022/06/09 03:43:09;;;;;;;37.40;13.88;;;12.30;99.90;;;;;;5071927;28;20036;-48
2022/06/09 03:45:34;;;;;;;36.45;13.43;;;12.70;99.90;;;;;;5072991;28;20507;-47
2022/06/09 03:48:01;;;;;;;29.58;12.10;;;12.30;99.90;;;;;;5054922;28;20036;-47
2022/06/09 03:50:29;;;;;;;38.28;13.75;;;12.60;99.90;;;;;;5073323;28;20434;-47
2022/06/09 03:52:55;;;;;;;37.63;12.60;;;12.40;99.90;;;;;;5073118;28;20040;-48
2022/06/09 03:55:21;;;;;;;29.90;12.60;;;12.70;99.90;;;;;;5071900;28;20032;-48
2022/06/09 03:57:47;;;;;;;34.22;12.13;;;12.70;99.90;;;;;;5072817;28;20033;-48
2022/06/09 04:00:19;;;;;;;33.13;12.38;;;12.60;99.90;;;;;;5054534;28;20044;-49
2022/06/09 04:02:45;;;;;;;33.38;12.27;;;12.70;99.90;;;;;;5054928;28;20078;-46
2022/06/09 04:05:13;;;;;;;32.85;11.98;;;12.70;99.90;;;;;;5072754;28;20573;-47
2022/06/09 04:07:40;;;;;;;32.20;12.55;;;12.30;99.90;;;;;;5072810;28;20045;-45
2022/06/09 04:10:06;;;;;;;26.55;12.07;;;12.70;99.90;;;;;;5055142;28;20078;-46
2022/06/09 04:12:32;;;;;;;31.40;11.55;;;12.80;99.90;;;;;;5072988;28;20060;-46
2022/06/09 04:14:58;;;;;;;30.55;12.77;;;12.50;99.90;;;;;;5072561;28;20142;-45
2022/06/09 04:17:24;;;;;;;26.90;11.50;;;12.50;99.90;;;;;;5071788;28;20047;-46
2022/06/09 04:19:50;;;;;;;29.17;12.43;;;12.80;99.90;;;;;;5072518;28;20511;-46
2022/06/09 04:22:15;;;;;;;31.08;11.77;;;12.90;99.90;;;;;;5071264;28;20053;-46
2022/06/09 04:24:42;;;;;;;28.48;11.88;;;12.60;99.90;;;;;;5071138;28;20127;-46
2022/06/09 04:27:09;;;;;;;26.80;11.63;;;12.80;99.90;;;;;;5072559;28;20108;-47
2022/06/09 04:29:34;;;;;;;26.95;11.73;;;12.50;99.90;;;;;;5071994;28;20451;-50
2022/06/09 04:32:00;;;;;;;21.05;10.80;;;12.70;99.90;;;;;;5072500;28;20131;-47
2022/06/09 04:34:26;;;;;;;26.98;10.82;;;12.90;99.90;;;;;;5070785;28;20182;-48
2022/06/09 04:36:51;;;;;;;25.05;10.80;;;12.40;99.90;;;;;;5072440;28;20483;-49
2022/06/09 04:39:17;;;;;;;29.98;11.70;;;12.50;99.90;;;;;;5072141;28;20036;-49
2022/06/09 04:41:43;;;;;;;26.83;10.80;;;12.50;99.90;;;;;;5072257;28;20041;-51
2022/06/09 04:44:09;;;;;;;33.33;11.60;;;12.70;99.90;;;;;;5037835;28;20028;-48
2022/06/09 04:46:35;;;;;;;31.55;11.00;;;12.90;99.90;;;;;;5072181;28;20028;-47
2022/06/09 04:49:00;;;;;;;24.00;10.25;;;12.70;99.90;;;;;;5071957;28;20072;-49
2022/06/09 04:51:26;;;;;;;22.00;10.85;;;12.60;99.90;;;;;;5053452;28;20120;-46
2022/06/09 04:53:53;;;;;;;22.75;11.95;;;13.20;99.90;;;;;;5070107;28;20044;-48
2022/06/09 04:56:21;;;;;;;27.67;11.15;;;12.90;99.90;;;;;;5072066;28;20040;-49
2022/06/09 04:58:48;;;;;;;20.05;11.45;;;13.00;99.90;;;;;;5071456;28;20102;-47
2022/06/09 05:01:29;;;;;;;21.63;11.02;;;13.30;99.90;;;;;;5071845;28;20036;-47
2022/06/09 05:03:56;;;;;;;19.42;11.43;;;13.60;99.90;;;;;;5071877;28;20041;-45
2022/06/09 05:06:23;;;;;;;19.77;10.95;;;13.70;99.90;;;;;;5071760;28;20088;-47
2022/06/09 05:08:50;;;;;;;21.50;10.70;;;13.50;99.90;;;;;;5071781;28;20476;-46
2022/06/09 05:11:17;;;;;;;19.98;10.45;;;13.50;99.90;;;;;;5071526;28;20047;-47
2022/06/09 05:13:43;;;;;;;15.88;9.10;;;14.00;99.90;;;;;;5071112;28;20072;-46
2022/06/09 05:16:09;;;;;;;23.40;9.45;;;14.10;99.90;;;;;;5071639;28;20474;-47
2022/06/09 05:18:35;;;;;;;18.67;8.30;;;13.60;99.90;;;;;;5071569;28;20067;-45
2022/06/09 05:21:02;;;;;;;16.60;8.18;;;14.20;99.90;;;;;;5070836;28;20076;-46
2022/06/09 05:23:29;;;;;;;13.10;8.15;;;13.90;99.90;;;;;;5036952;28;20131;-48
2022/06/09 05:25:57;;;;;;;12.75;7.68;;;13.90;99.90;;;;;;5071384;28;20422;-46
2022/06/09 05:28:24;;;;;;;14.10;7.50;;;13.80;99.90;;;;;;5071313;28;20036;-48
2022/06/09 05:30:50;;;;;;;16.77;7.90;;;13.90;99.90;;;;;;5071049;28;20194;-46
2022/06/09 05:33:16;;;;;;;16.52;8.13;;;14.30;99.90;;;;;;5071076;28;20032;-46
2022/06/09 05:35:41;;;;;;;15.57;8.18;;;14.30;99.90;;;;;;5071157;28;20068;-45
2022/06/09 05:46:24;;;;;;;25.67;8.90;;;14.00;99.90;;;;;;5070938;28;20102;-47
2022/06/09 05:48:49;;;;;;;15.13;8.05;;;14.00;99.90;;;;;;5071226;28;20032;-45
2022/06/09 05:51:16;;;;;;;19.27;8.18;;;14.60;99.90;;;;;;5052231;28;20072;-46
2022/06/09 05:53:43;;;;;;;21.92;8.02;;;14.70;99.90;;;;;;5070797;28;20045;-45
2022/06/09 05:56:09;;;;;;;17.73;8.45;;;14.20;99.90;;;;;;5070407;28;20036;-45
2022/06/09 05:58:36;;;;;;;14.43;7.88;;;14.70;99.90;;;;;;5070583;28;20041;-46
2022/06/09 06:01:05;;;;;;;19.95;8.52;;;14.60;99.90;;;;;;5070653;28;20502;-46
2022/06/09 06:03:31;;;;;;;15.27;7.53;;;15.00;99.90;;;;;;5070747;28;20079;-47
2022/06/09 06:08:41;;;;;;;17.13;6.65;;;14.80;99.90;;;;;;5070702;28;20048;-47
2022/06/09 06:11:07;;;;;;;13.43;6.72;;;15.50;99.90;;;;;;5070823;28;20036;-46
2022/06/09 06:13:33;;;;;;;13.82;6.72;;;15.10;99.90;;;;;;5070915;28;20063;-46
2022/06/09 06:15:59;;;;;;;15.20;6.68;;;15.10;99.90;;;;;;5070614;28;20071;-46
2022/06/09 06:18:26;;;;;;;17.30;6.32;;;15.30;99.90;;;;;;5052061;28;20037;-46
2022/06/09 06:20:53;;;;;;;13.88;6.35;;;15.30;99.90;;;;;;5069602;28;20055;-46
2022/06/09 06:23:19;;;;;;;14.52;5.38;;;15.30;99.90;;;;;;5070050;28;20055;-47
2022/06/09 06:25:44;;;;;;;15.70;6.22;;;14.90;99.90;;;;;;5052143;28;20048;-46
2022/06/09 06:28:10;;;;;;;15.20;5.65;;;14.90;99.90;;;;;;5065068;28;20036;-47
2022/06/09 06:30:36;;;;;;;14.90;5.85;;;15.50;99.90;;;;;;5066426;28;20681;-46
2022/06/09 06:33:02;;;;;;;13.40;5.15;;;15.60;99.90;;;;;;5064964;28;20033;-46
2022/06/09 06:35:28;;;;;;;12.95;4.18;;;15.40;99.90;;;;;;5046012;28;20052;-46
2022/06/09 06:37:53;;;;;;;10.63;3.45;;;15.60;99.90;;;;;;5059328;28;20052;-47
2022/06/09 06:40:19;;;;;;;12.70;4.10;;;15.20;99.90;;;;;;5060599;28;20111;-47
2022/06/09 06:42:45;;;;;;;9.45;4.07;;;15.60;99.90;;;;;;5059790;28;20127;-46
2022/06/09 06:45:12;;;;;;;10.02;3.53;;;15.30;99.90;;;;;;5051629;28;20385;-49
2022/06/09 06:47:41;;;;;;;11.45;3.67;;;16.10;99.90;;;;;;5052115;28;20115;-46
2022/06/09 06:50:09;;;;;;;9.40;3.50;;;15.50;99.90;;;;;;5052228;28;20508;-47
2022/06/09 06:52:35;;;;;;;9.90;3.38;;;15.50;99.90;;;;;;5060443;28;20131;-46
2022/06/09 06:55:01;;;;;;;11.45;2.92;;;15.80;99.90;;;;;;5062788;28;20119;-46
2022/06/09 06:57:26;;;;;;;7.75;3.03;;;15.60;99.90;;;;;;5062968;28;20068;-45
2022/06/09 06:59:52;;;;;;;8.85;2.92;;;15.80;99.90;;;;;;5062604;28;20471;-48
2022/06/09 07:02:21;;;;;;;9.30;2.97;;;15.70;99.90;;;;;;5061886;28;20115;-49
2022/06/09 07:04:46;;;;;;;11.88;2.67;;;15.70;99.90;;;;;;5062412;28;20036;-45
2022/06/09 07:07:12;;;;;;;8.85;2.58;;;15.80;99.90;;;;;;5061946;28;20498;-45
2022/06/09 07:09:38;;;;;;;8.20;2.33;;;15.80;99.90;;;;;;5061552;28;20070;-44
2022/06/09 07:12:05;;;;;;;10.02;2.35;;;16.10;99.90;;;;;;5060868;28;20029;-46
2022/06/09 07:14:31;;;;;;;6.47;1.92;;;16.10;99.90;;;;;;5061500;28;20120;-48
2022/06/09 07:16:56;;;;;;;7.03;2.10;;;16.10;99.90;;;;;;5061053;28;20032;-47
2022/06/09 07:19:22;;;;;;;5.40;2.05;;;16.10;99.90;;;;;;5042791;28;20045;-47
2022/06/09 07:21:48;;;;;;;9.05;2.33;;;16.10;99.90;;;;;;5060072;28;20381;-46
2022/06/09 07:24:13;;;;;;;10.38;2.00;;;16.10;99.90;;;;;;5052633;28;20396;-45
2022/06/09 07:26:39;;;;;;;8.30;1.80;;;16.30;99.90;;;;;;5052843;28;23510;-46
2022/06/09 07:29:05;;;;;;;9.10;1.98;;;16.20;99.90;;;;;;5047959;28;20543;-47
2022/06/09 07:31:31;;;;;;;7.63;1.67;;;16.30;99.90;;;;;;5030621;28;20120;-48
2022/06/09 07:33:57;;;;;;;7.95;1.60;;;16.20;99.90;;;;;;5047245;28;20048;-46
2022/06/09 07:36:25;;;;;;;7.18;2.15;;;16.40;99.90;;;;;;5047929;28;20154;-46
2022/06/09 07:38:50;;;;;;;6.80;1.90;;;16.40;99.90;;;;;;5050495;28;20033;-45
2022/06/09 07:41:19;;;;;;;9.20;1.70;;;16.40;99.90;;;;;;5047727;28;20063;-45
2022/06/09 07:43:45;;;;;;;7.65;2.15;;;16.60;99.90;;;;;;5047010;28;20063;-47
2022/06/09 07:46:11;;;;;;;4.03;1.80;;;16.70;99.90;;;;;;5052644;28;20396;-47
2022/06/09 07:48:37;;;;;;;7.43;1.80;;;16.60;99.90;;;;;;5049925;28;20680;-46
2022/06/09 07:51:03;;;;;;;9.00;2.17;;;16.70;99.90;;;;;;5048407;28;20056;-46
2022/06/09 07:53:29;;;;;;;6.43;1.63;;;16.70;99.90;;;;;;5054016;28;20072;-48
2022/06/09 07:55:55;;;;;;;8.40;1.67;;;16.60;99.90;;;;;;5035614;28;20044;-48
2022/06/09 07:58:21;;;;;;;6.03;1.75;;;16.70;99.90;;;;;;5053939;28;20052;-46
2022/06/09 08:00:47;;;;;;;9.18;1.77;;;16.80;99.90;;;;;;5052622;28;20086;-45
2022/06/09 08:03:22;;;;;;;8.95;1.60;;;16.80;99.90;;;;;;5053874;28;20033;-45
2022/06/09 08:05:48;;;;;;;7.80;1.65;;;16.90;99.90;;;;;;5054666;28;20083;-45
2022/06/09 08:08:14;;;;;;;8.25;1.85;;;16.90;99.90;;;;;;5051246;28;20203;-47
2022/06/09 08:10:41;;;;;;;8.52;1.80;;;16.90;99.90;;;;;;5053342;28;20131;-46
2022/06/09 08:13:08;;;;;;;10.73;1.98;;;16.90;99.90;;;;;;5051295;28;20112;-47
2022/06/09 08:15:34;;;;;;;6.20;1.42;;;17.00;99.90;;;;;;5050106;28;20347;-45
2022/06/09 08:18:01;;;;;;;9.68;2.08;;;17.10;99.90;;;;;;5054022;28;20119;-45
2022/06/09 08:20:29;;;;;;;4.93;1.30;;;17.20;99.90;;;;;;5054106;28;20056;-48
2022/06/09 08:23:17;;;;;;;7.45;1.70;;;17.20;99.90;;;;;;5051938;28;20388;-46
2022/06/09 08:25:44;;;;;;;8.43;1.58;;;17.20;99.90;;;;;;5052822;28;20475;-47
2022/06/09 08:28:10;;;;;;;6.53;1.95;;;17.20;99.90;;;;;;5035377;28;20036;-48
2022/06/09 08:30:37;;;;;;;4.43;1.60;;;17.30;99.90;;;;;;5055500;28;20243;-47
2022/06/09 08:33:04;;;;;;;6.55;1.60;;;17.40;99.90;;;;;;5053934;28;20045;-51
2022/06/09 08:35:31;;;;;;;5.90;1.40;;;17.30;99.90;;;;;;5051567;28;20033;-50
2022/06/09 08:37:57;;;;;;;6.88;1.60;;;17.40;99.90;;;;;;5054408;28;20033;-48
2022/06/09 08:40:53;;;;;;;7.78;1.60;;;17.50;99.90;;;;;;5050972;28;20037;-48
2022/06/09 08:43:31;;;;;;;4.85;0.95;;;17.50;99.90;;;;;;5052171;28;20041;-48
2022/06/09 08:46:07;;;;;;;4.43;1.08;;;17.50;99.90;;;;;;5050297;28;20053;-48
2022/06/09 08:48:39;;;;;;;9.45;1.50;;;17.60;99.90;;;;;;5052695;28;20087;-46
2022/06/09 08:51:21;;;;;;;5.07;1.20;;;17.50;99.90;;;;;;5053359;28;20068;-46
2022/06/09 08:53:54;;;;;;;5.82;1.15;;;17.70;99.90;;;;;;5056219;28;20475;-45
2022/06/09 08:56:27;;;;;;;6.30;1.40;;;17.70;99.90;;;;;;5069983;28;20379;-47
2022/06/09 08:58:53;;;;;;;5.70;1.38;;;17.80;99.90;;;;;;5051358;28;20271;-47
2022/06/09 09:01:44;;;;;;;6.20;1.45;;;17.80;99.90;;;;;;5069376;28;20123;-50
2022/06/09 09:04:24;;;;;;;4.13;1.00;;;18.00;99.90;;;;;;5043022;28;20139;-47
2022/06/09 09:07:05;;;;;;;5.03;1.10;;;18.10;99.90;;;;;;5071369;28;20476;-45
2022/06/09 09:09:33;;;;;;;6.22;0.90;;;18.20;99.90;;;;;;5071271;28;20032;-45
2022/06/09 09:12:08;;;;;;;5.20;0.90;;;18.20;99.90;;;;;;5071516;28;20032;-46
2022/06/09 09:14:47;;;;;;;4.75;0.82;;;18.30;99.90;;;;;;5070955;28;20284;-46
2022/06/09 09:17:48;;;;;;;5.22;1.23;;;18.60;99.90;;;;;;5070110;28;20037;-47
2022/06/09 09:20:24;;;;;;;5.47;1.27;;;18.70;99.90;;;;;;5049026;28;20055;-47
2022/06/09 09:23:15;;;;;;;8.07;1.10;;;18.70;99.90;;;;;;5071057;28;20131;-46
2022/06/09 09:26:00;;;;;;;5.75;1.05;;;18.90;99.90;;;;;;5071042;28;20060;-48
2022/06/09 09:28:53;;;;;;;6.72;1.10;;;18.90;99.90;;;;;;5053140;28;20047;-45
2022/06/09 09:31:36;;;;;;;6.93;1.00;;;18.90;99.90;;;;;;5071026;28;20122;-48
2022/06/09 09:34:04;;;;;;;6.57;0.90;;;18.90;99.90;;;;;;5071145;28;20093;-46
2022/06/09 09:36:36;;;;;;;5.10;0.80;;;19.20;99.90;;;;;;5070625;28;20040;-50
2022/06/09 09:39:31;;;;;;;6.47;0.90;;;19.00;99.90;;;;;;5067345;28;20067;-46
2022/06/09 09:42:12;;;;;;;6.88;0.90;;;19.10;99.90;;;;;;5050700;28;20079;-47
2022/06/09 09:44:38;;;;;;;3.00;0.63;;;19.30;99.90;;;;;;5070809;28;20036;-47
2022/06/09 09:47:04;;;;;;;5.15;0.70;;;19.40;99.90;;;;;;5042900;28;20062;-47
2022/06/09 09:49:40;;;;;;;4.80;0.95;;;19.20;99.90;;;;;;5062875;28;20090;-50
2022/06/09 09:52:33;;;;;;;5.90;1.00;;;19.50;99.90;;;;;;5061918;28;20475;-49
2022/06/09 09:54:59;;;;;;;4.65;0.85;;;19.40;99.90;;;;;;5061947;28;20033;-47
2022/06/09 09:57:27;;;;;;;2.38;0.70;;;19.10;99.90;;;;;;5061605;28;20037;-48
2022/06/09 09:59:55;;;;;;;5.57;0.90;;;19.30;99.90;;;;;;5060880;28;20107;-47
2022/06/09 10:08:42;;;;;;;3.17;0.57;;;19.30;99.90;;;;;;5061938;28;20075;-46
2022/06/09 10:14:27;;;;;;;5.80;0.88;;;19.30;99.90;;;;;;5060438;28;20147;-46
2022/06/09 10:16:55;;;;;;;7.78;0.90;;;19.30;99.90;;;;;;5060893;28;20066;-48
2022/06/09 10:19:25;;;;;;;3.88;0.68;;;19.40;99.90;;;;;;5057576;28;20041;-48
2022/06/09 10:21:58;;;;;;;5.38;0.90;;;19.60;99.90;;;;;;5055875;28;20057;-51
2022/06/09 10:24:48;;;;;;;4.50;0.60;;;19.40;99.90;;;;;;5059033;28;20044;-47
2022/06/09 10:27:18;;;;;;;4.10;0.80;;;19.30;99.90;;;;;;5043230;28;20313;-47
2022/06/09 10:29:51;;;;;;;4.05;0.77;;;19.40;99.90;;;;;;5052914;28;20035;-47
2022/06/09 10:32:42;;;;;;;7.63;1.00;;;19.40;99.90;;;;;;5060469;28;20044;-49
2022/06/09 10:35:18;;;;;;;7.05;1.00;;;19.40;99.90;;;;;;5058261;28;20541;-47
2022/06/09 10:37:50;;;;;;;10.02;1.40;;;19.40;99.90;;;;;;5060975;28;20486;-47
2022/06/09 10:40:30;;;;;;;7.35;1.10;;;19.40;99.90;;;;;;5059794;28;20032;-48
2022/06/09 10:43:02;;;;;;;4.85;1.20;;;19.30;99.90;;;;;;5058059;28;20057;-48
2022/06/09 10:45:55;;;;;;;5.47;1.00;;;19.30;99.90;;;;;;5061280;28;20040;-50
2022/06/09 10:55:18;;;;;;;5.30;1.13;;;19.60;99.90;;;;;;5057783;28;20055;-46
2022/06/09 10:57:53;;;;;;;;;;;19.70;99.90;;;;;;5059493;28;20047;-49
2022/06/09 11:00:28;;;;;;;5.63;1.27;;;19.50;99.90;;;;;;5057604;28;20379;-46
2022/06/09 11:02:55;;;;;;;7.13;1.30;;;19.60;99.90;;;;;;5055329;28;20036;-50
2022/06/09 11:05:35;;;;;;;12.75;1.75;;;19.80;99.90;;;;;;5057724;28;20500;-52
2022/06/09 11:08:16;;;;;;;7.80;1.05;;;19.80;99.90;;;;;;5043347;28;20056;-47
2022/06/09 11:11:09;;;;;;;6.50;1.50;;;20.20;99.90;;;;;;5058992;28;20033;-49
2022/06/09 11:14:00;;;;;;;6.68;1.40;;;20.40;99.90;;;;;;5042507;28;20048;-47
2022/06/09 11:16:34;;;;;;;7.25;1.55;;;20.10;99.90;;;;;;5060893;28;20055;-46
2022/06/09 11:19:15;;;;;;;;;;;20.20;99.90;;;;;;5042577;28;20071;-48
2022/06/09 11:21:52;;;;;;;6.70;1.10;;;20.20;99.90;;;;;;5050099;28;19943;-46
2022/06/09 11:24:21;;;;;;;7.07;1.65;;;20.00;99.90;;;;;;5059616;28;20041;-47
2022/06/09 11:27:24;;;;;;;5.80;1.15;;;20.30;99.90;;;;;;5059270;28;20131;-47
2022/06/09 11:30:19;;;;;;;7.10;1.65;;;20.10;99.90;;;;;;5043871;28;20059;-48
2022/06/09 11:33:29;;;;;;;8.18;1.23;;;20.50;99.90;;;;;;5064560;28;20040;-46
2022/06/09 11:36:06;;;;;;;6.05;1.10;;;20.60;99.90;;;;;;5020154;28;20041;-49
2022/06/09 11:38:57;;;;;;;4.72;1.10;;;20.20;99.90;;;;;;5062132;28;20048;-47
2022/06/09 11:41:48;;;;;;;7.93;1.30;;;20.40;99.90;;;;;;5063788;28;20064;-45
2022/06/09 11:44:28;;;;;;;6.82;1.10;;;20.20;99.90;;;;;;5062966;28;20692;-49
2022/06/09 11:46:58;;;;;;;7.38;1.55;;;20.30;99.90;;;;;;5062513;28;20059;-47
2022/06/09 11:49:33;;;;;;;9.10;1.73;;;20.60;99.90;;;;;;5054883;28;20044;-46
2022/06/09 11:52:02;;;;;;;8.27;1.77;;;20.40;99.90;;;;;;5062274;28;20037;-47
2022/06/09 11:54:41;;;;;;;9.50;1.70;;;20.90;99.90;;;;;;5063628;28;20573;-48
2022/06/09 11:57:16;;;;;;;6.88;1.80;;;20.80;99.90;;;;;;5060891;28;20169;-47
2022/06/09 12:00:22;;;;;;;7.72;1.65;;;20.80;99.90;;;;;;5056737;28;20043;-46
2022/06/09 12:03:19;;;;;;;7.60;1.48;;;20.70;99.90;;;;;;5054681;28;20036;-47
2022/06/09 12:05:55;;;;;;;9.45;1.25;;;20.30;99.90;;;;;;5059343;28;20045;-48
2022/06/09 12:08:32;;;;;;;8.13;1.60;;;20.60;99.90;;;;;;5058504;28;20110;-46
2022/06/09 12:11:19;;;;;;;10.00;1.70;;;20.60;99.90;;;;;;5059467;28;20476;-48
2022/06/09 12:14:23;;;;;;;7.07;1.25;;;21.00;99.90;;;;;;5060481;28;20032;-47
2022/06/09 12:17:13;;;;;;;9.18;1.50;;;21.00;99.90;;;;;;5062220;28;20055;-47
2022/06/09 12:19:57;;;;;;;6.97;1.40;;;20.80;99.90;;;;;;5062508;28;20041;-48
2022/06/09 12:22:45;;;;;;;7.95;1.40;;;21.30;99.90;;;;;;5058684;28;20063;-49
2022/06/09 12:25:10;;;;;;;6.40;1.30;;;21.30;99.90;;;;;;5056576;28;20041;-47
2022/06/09 12:27:39;;;;;;;5.97;1.50;;;21.50;99.90;;;;;;5057690;28;20037;-48
2022/06/09 12:30:20;;;;;;;7.07;1.30;;;21.70;99.90;;;;;;5058681;28;20041;-49
2022/06/09 12:32:46;;;;;;;10.10;1.45;;;21.50;99.90;;;;;;5060564;28;20037;-48
2022/06/09 12:35:35;;;;;;;6.07;1.42;;;21.50;99.90;;;;;;5060161;28;20623;-47
2022/06/09 12:38:05;;;;;;;5.88;1.27;;;21.30;99.90;;;;;;5058794;28;20131;-47
2022/06/09 12:40:43;;;;;;;8.35;1.20;;;21.50;99.90;;;;;;5062006;28;20157;-47
2022/06/09 12:43:47;;;;;;;7.60;1.45;;;21.60;99.90;;;;;;5060198;28;20090;-51
2022/06/09 12:46:25;;;;;;;8.15;1.35;;;21.80;99.90;;;;;;5053309;28;20616;-46
2022/06/09 12:48:53;;;;;;;6.47;1.25;;;21.70;99.90;;;;;;5060331;28;20047;-47
2022/06/09 12:51:31;;;;;;;5.25;1.25;;;21.30;99.90;;;;;;5060500;28;20028;-49
2022/06/09 12:54:05;;;;;;;10.60;1.40;;;21.90;99.90;;;;;;5059405;28;20050;-46
2022/06/09 12:56:42;;;;;;;7.60;1.30;;;21.90;99.90;;;;;;5060129;28;20043;-48
2022/06/09 12:59:30;;;;;;;10.88;1.27;;;21.90;99.90;;;;;;5042625;28;20040;-49
2022/06/09 13:02:11;;;;;;;6.25;1.10;;;22.00;99.90;;;;;;5060489;28;20071;-51
2022/06/09 13:04:52;;;;;;;7.22;1.25;;;22.20;99.90;;;;;;5059256;28;20045;-47
2022/06/09 13:07:24;;;;;;;6.97;1.13;;;22.40;99.90;;;;;;5059404;28;20036;-49
2022/06/09 13:10:05;;;;;;;6.35;1.23;;;22.40;99.90;;;;;;5042295;28;20051;-45
2022/06/09 13:12:50;;;;;;;6.72;1.10;;;22.50;99.90;;;;;;5058623;28;20031;-48
2022/06/09 13:15:24;;;;;;;6.68;1.40;;;22.30;99.90;;;;;;5058591;28;20483;-47
2022/06/09 13:17:50;;;;;;;9.32;1.65;;;22.30;99.90;;;;;;5058412;28;20039;-48
2022/06/09 13:20:21;;;;;;;7.07;1.17;;;22.10;99.90;;;;;;5057585;28;20033;-47
2022/06/09 13:22:47;;;;;;;7.95;1.13;;;22.50;99.90;;;;;;5058018;28;20040;-48
2022/06/09 13:25:18;;;;;;;8.77;1.40;;;22.20;99.90;;;;;;5060040;28;20048;-46
2022/06/09 13:27:45;;;;;;;7.00;1.27;;;22.40;99.90;;;;;;5059915;28;21400;-48